Time;durP1;ratioP1;P1;durP2;ratioP2;P2;SDS_P1;SDS_P2;PMS_P1;PMS_P2;Temp;Humidity;BMP_temperature;BMP_pressure;BME280_temperature;BME280_humidity;BME280_pressure;Samples;Min_cycle;Max_cycle;Signal;HPM_P1;HPM_P2
2022/11/23 00:00:57;;;;;;;14.90;10.25;;;7.60;99.90;;;;;;5113475;27;19960;-66
2022/11/23 00:03:23;;;;;;;17.05;11.05;;;7.60;99.90;;;;;;5113289;28;20047;-66
2022/11/23 00:05:48;;;;;;;13.80;10.10;;;7.60;99.90;;;;;;5113176;28;20047;-66
2022/11/23 00:08:14;;;;;;;13.82;9.85;;;7.60;99.90;;;;;;5094778;28;20047;-66
2022/11/23 00:10:40;;;;;;;17.70;10.60;;;7.60;99.90;;;;;;5113057;28;20039;-66
2022/11/23 00:13:05;;;;;;;19.40;11.35;;;7.60;99.90;;;;;;5112339;28;20128;-66
2022/11/23 00:15:31;;;;;;;17.45;10.27;;;7.60;99.90;;;;;;5095474;28;20047;-66
2022/11/23 00:17:59;;;;;;;14.80;10.20;;;7.60;99.90;;;;;;5113036;28;20484;-66
2022/11/23 00:20:24;;;;;;;14.75;10.20;;;7.70;99.90;;;;;;5112245;28;20515;-66
2022/11/23 00:22:50;;;;;;;14.15;9.77;;;7.70;99.90;;;;;;5112130;28;20040;-66
2022/11/23 00:25:16;;;;;;;13.15;10.07;;;7.70;99.90;;;;;;5113773;28;20502;-66
2022/11/23 00:27:41;;;;;;;14.93;10.20;;;7.70;99.90;;;;;;5112747;28;20115;-66
2022/11/23 00:30:08;;;;;;;16.52;9.80;;;7.70;99.90;;;;;;5112453;28;20040;-66
2022/11/23 00:32:33;;;;;;;14.85;9.63;;;7.70;99.90;;;;;;5112862;28;20043;-66
2022/11/23 00:34:59;;;;;;;15.70;11.27;;;7.70;99.90;;;;;;5112464;28;20036;-66
2022/11/23 00:37:24;;;;;;;13.90;9.65;;;7.80;99.90;;;;;;5111266;28;20036;-66
2022/11/23 00:39:50;;;;;;;20.75;10.57;;;7.80;99.90;;;;;;5113713;28;20046;-66
2022/11/23 00:42:16;;;;;;;17.13;10.60;;;7.80;99.90;;;;;;5111946;28;20119;-66
2022/11/23 00:44:41;;;;;;;18.80;11.98;;;7.80;99.90;;;;;;5111783;28;20040;-66
2022/11/23 00:47:07;;;;;;;14.85;9.93;;;7.80;99.90;;;;;;5111874;28;20464;-66
2022/11/23 00:49:32;;;;;;;19.33;11.05;;;7.80;99.90;;;;;;5112384;28;20047;-66
2022/11/23 00:51:58;;;;;;;18.00;10.65;;;7.90;99.90;;;;;;5110837;28;20075;-66
2022/11/23 00:54:23;;;;;;;16.48;10.52;;;7.90;99.90;;;;;;5111644;28;20087;-66
2022/11/23 00:56:49;;;;;;;16.55;11.07;;;7.90;99.90;;;;;;5113704;28;20062;-66
2022/11/23 00:59:15;;;;;;;14.95;9.32;;;7.90;99.90;;;;;;5111780;28;20042;-66
2022/11/23 01:01:40;;;;;;;18.23;10.73;;;7.90;99.90;;;;;;5112158;28;20050;-66
2022/11/23 01:04:07;;;;;;;16.83;10.65;;;7.90;99.90;;;;;;5094582;28;20042;-66
2022/11/23 01:06:38;;;;;;;20.20;10.65;;;7.90;99.90;;;;;;5112799;28;20170;-65
2022/11/23 01:09:13;;;;;;;14.65;9.75;;;7.90;99.90;;;;;;5111415;28;20549;-66
2022/11/23 01:11:39;;;;;;;16.70;11.60;;;8.00;99.90;;;;;;5111171;28;20119;-65
2022/11/23 01:14:05;;;;;;;16.52;10.63;;;7.90;99.90;;;;;;5111315;28;20081;-66
2022/11/23 01:16:34;;;;;;;15.02;10.27;;;8.00;99.90;;;;;;5111721;28;20039;-66
2022/11/23 01:19:09;;;;;;;15.63;9.65;;;8.00;99.90;;;;;;5112510;28;20373;-66
2022/11/23 01:21:35;;;;;;;15.68;10.75;;;8.00;99.90;;;;;;5111873;28;20075;-66
2022/11/23 01:24:06;;;;;;;14.20;9.80;;;8.00;99.90;;;;;;5111796;28;20031;-66
2022/11/23 01:26:32;;;;;;;16.08;11.23;;;8.00;99.90;;;;;;5111055;28;20046;-66
2022/11/23 01:28:57;;;;;;;22.48;11.65;;;7.90;99.90;;;;;;5111334;28;20067;-66
2022/11/23 01:31:24;;;;;;;15.50;10.15;;;8.00;99.90;;;;;;5111110;28;20051;-66
2022/11/23 01:33:55;;;;;;;19.83;10.40;;;7.90;99.90;;;;;;5110787;28;20043;-66
2022/11/23 01:36:24;;;;;;;16.83;10.00;;;8.00;99.90;;;;;;5111001;28;20059;-65
2022/11/23 01:38:50;;;;;;;16.92;9.82;;;8.00;99.90;;;;;;5094605;28;20043;-66
2022/11/23 01:41:22;;;;;;;15.45;10.27;;;8.00;99.90;;;;;;5110056;28;20036;-66
2022/11/23 01:43:49;;;;;;;15.40;10.50;;;8.00;99.90;;;;;;5094615;28;20067;-66
2022/11/23 01:46:14;;;;;;;18.20;11.68;;;8.00;99.90;;;;;;5112483;28;20413;-66
2022/11/23 01:48:55;;;;;;;19.00;12.20;;;8.00;99.90;;;;;;5111894;28;20126;-66
2022/11/23 01:51:27;;;;;;;23.13;12.43;;;8.00;99.90;;;;;;5094404;28;20039;-65
2022/11/23 01:54:03;;;;;;;17.80;11.43;;;8.00;99.90;;;;;;5110678;28;20164;-66
2022/11/23 01:56:34;;;;;;;21.23;10.75;;;8.00;99.90;;;;;;5112619;28;20552;-66
2022/11/23 01:59:03;;;;;;;16.60;10.75;;;8.00;99.90;;;;;;5112745;28;20395;-66
2022/11/23 02:01:29;;;;;;;18.10;10.63;;;8.00;99.90;;;;;;5094269;28;20077;-65
2022/11/23 02:03:59;;;;;;;14.48;10.52;;;8.00;99.90;;;;;;5115438;28;20039;-66
2022/11/23 02:06:24;;;;;;;18.23;11.07;;;8.00;99.90;;;;;;5115085;28;20480;-66
2022/11/23 02:08:51;;;;;;;17.33;10.30;;;8.00;99.90;;;;;;5114898;28;20046;-65
2022/11/23 02:11:17;;;;;;;17.90;11.35;;;8.00;99.90;;;;;;5116112;28;20040;-66
2022/11/23 02:13:46;;;;;;;17.20;10.52;;;8.00;99.90;;;;;;5116579;28;20482;-66
2022/11/23 02:16:12;;;;;;;19.52;11.63;;;8.00;99.90;;;;;;5115278;28;20027;-66
2022/11/23 02:18:41;;;;;;;18.80;12.57;;;8.00;99.90;;;;;;5115445;28;20043;-66
2022/11/23 02:21:07;;;;;;;16.40;10.85;;;8.00;99.90;;;;;;5115022;28;20035;-65
2022/11/23 02:23:42;;;;;;;16.42;11.80;;;8.00;99.90;;;;;;5114322;28;20085;-66
2022/11/23 02:26:20;;;;;;;18.23;11.32;;;8.00;99.90;;;;;;5115994;28;20063;-66
2022/11/23 02:29:00;;;;;;;18.95;11.30;;;8.00;99.90;;;;;;5114632;28;20388;-65
2022/11/23 02:31:26;;;;;;;20.27;12.00;;;8.00;99.90;;;;;;5114319;28;20484;-66
2022/11/23 02:33:52;;;;;;;19.83;12.85;;;8.00;99.90;;;;;;5097985;28;20088;-65
2022/11/23 02:36:26;;;;;;;18.75;12.57;;;8.00;99.90;;;;;;5113488;28;20044;-66
2022/11/23 02:38:54;;;;;;;22.17;12.63;;;8.00;99.90;;;;;;5115019;28;20047;-66
2022/11/23 02:41:20;;;;;;;18.77;11.93;;;8.10;99.90;;;;;;5114150;28;20047;-66
2022/11/23 02:43:50;;;;;;;24.85;13.88;;;8.00;99.90;;;;;;5114087;28;20096;-66
2022/11/23 02:46:16;;;;;;;22.50;13.63;;;8.00;99.90;;;;;;5115640;28;20036;-66
2022/11/23 02:48:42;;;;;;;22.98;14.35;;;8.10;99.90;;;;;;5115028;28;20040;-66
2022/11/23 02:51:07;;;;;;;21.05;14.43;;;8.00;99.90;;;;;;5114431;28;20032;-66
2022/11/23 02:53:33;;;;;;;21.70;12.73;;;8.10;99.90;;;;;;5114655;28;20043;-66
2022/11/23 02:55:58;;;;;;;30.38;15.15;;;8.00;99.90;;;;;;5115964;28;20036;-66
2022/11/23 02:58:24;;;;;;;25.15;13.95;;;8.00;99.90;;;;;;5114224;28;20028;-66
2022/11/23 03:00:50;;;;;;;24.05;15.32;;;8.00;99.90;;;;;;5115444;28;20035;-66
2022/11/23 03:03:15;;;;;;;30.23;16.10;;;8.10;99.90;;;;;;5114208;28;20445;-66
2022/11/23 03:05:41;;;;;;;21.45;13.70;;;8.00;99.90;;;;;;5113531;28;20493;-66
2022/11/23 03:08:07;;;;;;;19.92;13.60;;;8.00;99.90;;;;;;5114991;28;20115;-66
2022/11/23 03:10:33;;;;;;;19.08;12.88;;;8.00;99.90;;;;;;5115455;28;20047;-66
2022/11/23 03:12:58;;;;;;;21.88;13.90;;;8.00;99.90;;;;;;5113169;28;20050;-66
2022/11/23 03:15:24;;;;;;;24.35;14.48;;;8.00;99.90;;;;;;5113377;28;20048;-66
2022/11/23 03:17:50;;;;;;;24.77;13.27;;;8.00;99.90;;;;;;5113515;28;20039;-66
2022/11/23 03:20:16;;;;;;;21.70;13.57;;;8.00;99.90;;;;;;5096602;28;20071;-66
2022/11/23 03:22:42;;;;;;;20.52;12.75;;;8.00;99.90;;;;;;5115162;28;20491;-66
2022/11/23 03:25:07;;;;;;;23.10;14.20;;;8.00;99.90;;;;;;5114149;28;20081;-66
2022/11/23 03:27:33;;;;;;;24.27;14.05;;;8.00;99.90;;;;;;5113934;28;20496;-66
2022/11/23 03:29:59;;;;;;;20.27;13.93;;;8.00;99.90;;;;;;5113885;28;20450;-66
2022/11/23 03:32:25;;;;;;;26.88;15.50;;;8.00;99.90;;;;;;5113767;28;20040;-66
2022/11/23 03:34:51;;;;;;;26.40;15.68;;;8.00;99.90;;;;;;5113871;28;20035;-66
2022/11/23 03:37:16;;;;;;;24.50;14.15;;;8.00;99.90;;;;;;5114129;28;20048;-66
2022/11/23 03:39:42;;;;;;;22.98;14.23;;;7.90;99.90;;;;;;5112663;28;20043;-66
2022/11/23 03:42:07;;;;;;;22.70;15.73;;;7.90;99.90;;;;;;5114313;28;20027;-66
2022/11/23 03:44:33;;;;;;;26.00;16.85;;;7.90;99.90;;;;;;5115061;28;20106;-66
2022/11/23 03:46:59;;;;;;;28.38;16.27;;;8.00;99.90;;;;;;5114277;28;20094;-66
2022/11/23 03:49:25;;;;;;;25.77;15.63;;;7.90;99.90;;;;;;5114095;28;20123;-66
2022/11/23 03:51:50;;;;;;;25.00;16.25;;;7.90;99.90;;;;;;5113294;28;20122;-66
2022/11/23 03:54:16;;;;;;;28.33;16.70;;;7.90;99.90;;;;;;5113341;28;20071;-66
2022/11/23 03:56:42;;;;;;;24.75;15.20;;;7.90;99.90;;;;;;5113425;28;20437;-66
2022/11/23 03:59:07;;;;;;;28.38;16.63;;;7.80;99.90;;;;;;5113341;28;20570;-66
2022/11/23 04:01:33;;;;;;;26.60;17.05;;;7.90;99.90;;;;;;5113640;28;20396;-66
2022/11/23 04:03:59;;;;;;;30.50;17.02;;;7.90;99.90;;;;;;5113173;28;20031;-66
2022/11/23 04:06:24;;;;;;;28.48;17.27;;;7.80;99.90;;;;;;5112501;28;20040;-66
2022/11/23 04:08:50;;;;;;;33.28;18.58;;;7.90;99.90;;;;;;5112663;28;20085;-66
2022/11/23 04:11:16;;;;;;;23.70;15.93;;;7.90;99.90;;;;;;5113658;28;20036;-66
2022/11/23 04:13:41;;;;;;;30.63;17.38;;;7.90;99.90;;;;;;5112965;28;20042;-66
2022/11/23 04:16:07;;;;;;;33.42;19.83;;;7.90;99.90;;;;;;5111645;28;20035;-65
2022/11/23 04:18:32;;;;;;;32.70;17.50;;;7.90;99.90;;;;;;5096330;28;20028;-66
2022/11/23 04:20:58;;;;;;;30.63;18.13;;;7.80;99.90;;;;;;5114339;28;20476;-66
2022/11/23 04:23:24;;;;;;;30.10;19.23;;;7.90;99.90;;;;;;5111772;28;20043;-66
2022/11/23 04:25:49;;;;;;;27.23;17.50;;;7.80;99.90;;;;;;5111747;28;20417;-66
2022/11/23 04:28:15;;;;;;;29.38;20.30;;;7.90;99.90;;;;;;5111689;28;20078;-66
2022/11/23 04:30:40;;;;;;;35.83;20.48;;;7.80;99.90;;;;;;5112721;28;20039;-66
2022/11/23 04:33:06;;;;;;;31.90;20.40;;;7.80;99.90;;;;;;5112145;28;20097;-66
2022/11/23 04:35:33;;;;;;;26.30;17.73;;;7.80;99.90;;;;;;5112868;28;20100;-66
2022/11/23 04:37:58;;;;;;;36.85;21.83;;;7.80;99.90;;;;;;5112581;28;20467;-66
2022/11/23 04:40:24;;;;;;;37.15;21.48;;;7.80;99.90;;;;;;5094926;28;20047;-66
2022/11/23 04:42:50;;;;;;;32.80;19.70;;;7.80;99.90;;;;;;5112815;28;20052;-66
2022/11/23 04:45:15;;;;;;;33.65;19.83;;;7.80;99.90;;;;;;5111998;28;20472;-66
2022/11/23 04:47:41;;;;;;;37.65;20.25;;;7.80;99.90;;;;;;5112379;28;20032;-66
2022/11/23 04:50:07;;;;;;;38.45;21.45;;;7.70;99.90;;;;;;5111203;28;20100;-66
2022/11/23 04:52:33;;;;;;;34.30;22.08;;;7.80;99.90;;;;;;5112210;28;20047;-66
2022/11/23 04:54:58;;;;;;;36.47;21.63;;;7.80;99.90;;;;;;5095131;28;20047;-66
2022/11/23 04:57:24;;;;;;;32.58;19.70;;;7.80;99.90;;;;;;5111169;28;20047;-66
2022/11/23 04:59:49;;;;;;;33.30;20.80;;;7.80;99.90;;;;;;5113862;28;20048;-66
2022/11/23 05:02:15;;;;;;;38.60;21.30;;;7.80;99.90;;;;;;5111924;28;20039;-66
2022/11/23 05:04:41;;;;;;;33.60;20.85;;;7.80;99.90;;;;;;5112546;28;20032;-66
2022/11/23 05:07:06;;;;;;;37.20;20.95;;;7.80;99.90;;;;;;5111548;28;20035;-66
2022/11/23 05:09:32;;;;;;;36.55;23.55;;;7.80;99.90;;;;;;5112047;28;20043;-66
2022/11/23 05:11:58;;;;;;;33.40;21.33;;;7.80;99.90;;;;;;5111199;28;20054;-66
2022/11/23 05:14:23;;;;;;;33.10;22.10;;;7.80;99.90;;;;;;5111351;28;20047;-66
2022/11/23 05:16:49;;;;;;;36.05;22.00;;;7.80;99.90;;;;;;5113037;28;20035;-66
2022/11/23 05:19:15;;;;;;;39.08;23.33;;;7.80;99.90;;;;;;5111739;28;20079;-66
2022/11/23 05:21:40;;;;;;;35.95;21.02;;;7.80;99.90;;;;;;5113131;28;20121;-66
2022/11/23 05:24:06;;;;;;;36.80;22.80;;;7.80;99.90;;;;;;5111149;28;20040;-66
2022/11/23 05:26:32;;;;;;;39.72;25.20;;;7.80;99.90;;;;;;5110951;28;20036;-66
2022/11/23 05:28:57;;;;;;;40.15;23.55;;;7.80;99.90;;;;;;5111729;28;20509;-66
2022/11/23 05:31:23;;;;;;;40.75;24.00;;;7.80;99.90;;;;;;5111219;28;20169;-66
2022/11/23 05:33:48;;;;;;;38.83;24.38;;;7.80;99.90;;;;;;5093881;28;20128;-66
2022/11/23 05:36:14;;;;;;;45.22;25.20;;;7.70;99.90;;;;;;5111722;28;20139;-66
2022/11/23 05:38:41;;;;;;;39.97;23.40;;;7.80;99.90;;;;;;5110651;28;20043;-65
2022/11/23 05:41:06;;;;;;;40.78;25.00;;;7.80;99.90;;;;;;5110972;28;20039;-65
2022/11/23 05:43:32;;;;;;;37.42;23.42;;;7.80;99.90;;;;;;5094544;28;20046;-65
2022/11/23 05:45:59;;;;;;;38.35;22.60;;;7.80;99.90;;;;;;5112245;28;20071;-66
2022/11/23 05:48:25;;;;;;;37.65;24.02;;;7.80;99.90;;;;;;5111973;28;20515;-66
2022/11/23 05:50:51;;;;;;;36.63;24.23;;;7.80;99.90;;;;;;5112772;28;20036;-66
2022/11/23 05:53:16;;;;;;;35.50;23.50;;;7.80;99.90;;;;;;5093231;28;20138;-66
2022/11/23 05:55:42;;;;;;;35.80;23.70;;;7.90;99.90;;;;;;5094461;28;20044;-66
2022/11/23 05:58:08;;;;;;;44.17;24.55;;;7.90;99.90;;;;;;5112336;28;20035;-66
2022/11/23 06:00:34;;;;;;;35.35;22.77;;;7.90;99.90;;;;;;5110572;28;20048;-66
2022/11/23 06:03:00;;;;;;;40.53;24.63;;;7.90;99.90;;;;;;5111216;28;20058;-66
2022/11/23 06:05:27;;;;;;;35.17;22.52;;;7.90;99.90;;;;;;5110895;28;20035;-66
2022/11/23 06:07:53;;;;;;;36.70;23.77;;;7.90;99.90;;;;;;5111689;28;20491;-66
2022/11/23 06:10:19;;;;;;;42.65;24.02;;;7.90;99.90;;;;;;5111043;28;20036;-66
2022/11/23 06:12:45;;;;;;;35.92;22.33;;;7.80;99.90;;;;;;5112788;28;20082;-66
2022/11/23 06:15:11;;;;;;;41.28;24.55;;;7.90;99.90;;;;;;5092866;28;20050;-65
2022/11/23 06:17:37;;;;;;;35.17;21.02;;;7.80;99.90;;;;;;5112438;28;20168;-66
2022/11/23 06:20:07;;;;;;;32.75;21.08;;;7.80;99.90;;;;;;5112361;28;20548;-66
2022/11/23 06:22:33;;;;;;;34.67;19.77;;;7.80;99.90;;;;;;5111561;28;20164;-66
2022/11/23 06:24:59;;;;;;;31.95;21.30;;;7.80;99.90;;;;;;5111055;28;20036;-66
2022/11/23 06:27:25;;;;;;;38.05;21.80;;;7.80;99.90;;;;;;5110842;28;20046;-66
2022/11/23 06:29:51;;;;;;;32.28;20.10;;;7.80;99.90;;;;;;5111794;28;20047;-66
2022/11/23 06:32:16;;;;;;;31.67;19.90;;;7.80;99.90;;;;;;5110318;28;20047;-66
2022/11/23 06:34:42;;;;;;;33.40;19.15;;;7.80;99.90;;;;;;5094138;28;20122;-66
2022/11/23 06:37:08;;;;;;;36.25;20.40;;;7.80;99.90;;;;;;5109685;28;20411;-66
2022/11/23 06:39:33;;;;;;;28.98;18.38;;;7.80;99.90;;;;;;5110942;28;20485;-66
2022/11/23 06:42:00;;;;;;;35.10;18.48;;;7.80;99.90;;;;;;5110215;28;20040;-66
2022/11/23 06:44:25;;;;;;;33.72;19.67;;;7.80;99.90;;;;;;5110528;28;20063;-66
2022/11/23 06:46:51;;;;;;;27.95;17.95;;;7.80;99.90;;;;;;5111984;28;20106;-66
2022/11/23 06:49:18;;;;;;;30.48;18.20;;;7.80;99.90;;;;;;5111411;28;20044;-66
2022/11/23 06:51:45;;;;;;;27.35;16.98;;;7.70;99.90;;;;;;5097625;28;20044;-66
2022/11/23 06:54:11;;;;;;;29.35;18.05;;;7.80;99.90;;;;;;5114233;28;20055;-66
2022/11/23 06:56:36;;;;;;;29.85;17.70;;;7.80;99.90;;;;;;5114018;28;20039;-66
2022/11/23 06:59:02;;;;;;;27.17;15.75;;;7.70;99.90;;;;;;5115504;28;20510;-66
2022/11/23 07:01:28;;;;;;;32.50;17.98;;;7.70;99.90;;;;;;5114076;28;20055;-66
2022/11/23 07:03:53;;;;;;;31.80;18.88;;;7.80;99.90;;;;;;5113608;28;20556;-66
2022/11/23 07:06:19;;;;;;;28.83;16.05;;;7.70;99.90;;;;;;5113885;28;20054;-66
2022/11/23 07:08:44;;;;;;;28.63;18.15;;;7.70;99.90;;;;;;5114284;28;20083;-66
2022/11/23 07:11:11;;;;;;;28.75;17.55;;;7.70;99.90;;;;;;5114189;28;20043;-66
2022/11/23 07:13:37;;;;;;;25.02;15.23;;;7.70;99.90;;;;;;5115702;28;20077;-66
2022/11/23 07:16:03;;;;;;;24.70;16.85;;;7.70;99.90;;;;;;5114037;28;20049;-66
2022/11/23 07:18:29;;;;;;;27.58;15.93;;;7.80;99.90;;;;;;5113294;28;20044;-66
2022/11/23 07:20:58;;;;;;;24.52;15.38;;;7.80;99.90;;;;;;5096940;28;20084;-66
2022/11/23 07:23:25;;;;;;;25.85;15.30;;;7.80;99.90;;;;;;5114877;28;20043;-66
2022/11/23 07:25:50;;;;;;;25.02;15.30;;;7.80;99.90;;;;;;5113501;28;20032;-66
2022/11/23 07:28:16;;;;;;;22.52;14.57;;;7.80;99.90;;;;;;5114740;28;20553;-66
2022/11/23 07:30:42;;;;;;;24.23;14.63;;;7.80;99.90;;;;;;5115005;28;20071;-66
2022/11/23 07:33:09;;;;;;;25.90;14.68;;;7.80;99.90;;;;;;5112422;28;20044;-66
2022/11/23 07:35:37;;;;;;;24.88;14.98;;;7.80;99.90;;;;;;5114773;28;20126;-66
2022/11/23 07:38:03;;;;;;;21.25;13.52;;;7.90;99.90;;;;;;5113460;28;20456;-66
2022/11/23 07:40:29;;;;;;;23.45;13.75;;;7.80;99.90;;;;;;5113449;28;20043;-66
2022/11/23 07:43:02;;;;;;;26.60;13.52;;;7.90;99.90;;;;;;5096657;28;20124;-66
2022/11/23 07:45:35;;;;;;;23.40;12.45;;;7.90;99.90;;;;;;5112656;28;20039;-66
2022/11/23 07:48:07;;;;;;;21.55;11.75;;;7.90;99.90;;;;;;5114710;28;20111;-66
2022/11/23 07:50:34;;;;;;;20.10;11.98;;;7.90;99.90;;;;;;5115045;28;20479;-66
2022/11/23 07:53:01;;;;;;;19.42;11.57;;;7.90;99.90;;;;;;5095928;28;20164;-66
2022/11/23 07:55:27;;;;;;;18.25;10.70;;;7.90;99.90;;;;;;5113258;28;20047;-66
2022/11/23 07:57:54;;;;;;;22.05;10.98;;;7.90;99.90;;;;;;5113326;28;20373;-66
2022/11/23 08:00:21;;;;;;;17.63;11.32;;;8.00;99.90;;;;;;5111535;28;20039;-66
2022/11/23 08:02:47;;;;;;;19.85;9.93;;;8.00;99.90;;;;;;5113220;28;20085;-66
2022/11/23 08:05:13;;;;;;;15.43;8.88;;;8.00;99.90;;;;;;5095573;28;20031;-66
2022/11/23 08:07:38;;;;;;;16.30;9.13;;;8.00;99.90;;;;;;5112350;28;20092;-66
2022/11/23 08:10:04;;;;;;;18.02;10.38;;;8.00;99.90;;;;;;5095424;28;20036;-65
2022/11/23 08:12:30;;;;;;;18.58;9.38;;;8.00;99.90;;;;;;5114320;28;20404;-66
2022/11/23 08:14:56;;;;;;;24.25;10.02;;;8.00;99.90;;;;;;5113480;28;20035;-66
2022/11/23 08:17:21;;;;;;;14.77;8.55;;;8.00;99.90;;;;;;5113561;28;20035;-66
2022/11/23 08:19:47;;;;;;;17.63;10.32;;;8.00;99.90;;;;;;5114202;28;20118;-66
2022/11/23 08:22:13;;;;;;;14.35;8.20;;;8.00;99.90;;;;;;5111799;28;20357;-66
2022/11/23 08:24:39;;;;;;;18.48;10.02;;;8.00;99.90;;;;;;5112778;28;20509;-66
2022/11/23 08:27:04;;;;;;;15.30;9.15;;;8.00;99.90;;;;;;5113678;28;20039;-66
2022/11/23 08:29:30;;;;;;;15.57;9.18;;;8.10;99.90;;;;;;5113248;28;20039;-65
2022/11/23 08:31:55;;;;;;;18.00;9.90;;;8.10;99.90;;;;;;5112526;28;20074;-65
2022/11/23 08:34:21;;;;;;;16.38;9.73;;;8.10;99.90;;;;;;5110223;28;20071;-65
2022/11/23 08:36:47;;;;;;;20.77;9.45;;;8.10;99.90;;;;;;5092366;28;20134;-65
2022/11/23 08:39:13;;;;;;;13.50;9.00;;;8.10;99.90;;;;;;5112970;28;20051;-66
2022/11/23 08:41:40;;;;;;;18.85;9.07;;;8.10;99.90;;;;;;5111454;28;20563;-65
2022/11/23 08:44:08;;;;;;;18.17;8.82;;;8.10;99.90;;;;;;5111415;28;20406;-65
2022/11/23 08:46:56;;;;;;;17.83;10.02;;;8.20;99.90;;;;;;5110095;28;20044;-65
2022/11/23 08:49:21;;;;;;;17.13;9.13;;;8.20;99.90;;;;;;5111037;28;20043;-66
2022/11/23 08:51:47;;;;;;;21.60;10.95;;;8.20;99.90;;;;;;5102818;28;20032;-65
2022/11/23 08:54:12;;;;;;;16.25;9.73;;;8.20;99.90;;;;;;5102011;28;20428;-66
2022/11/23 08:56:38;;;;;;;16.58;9.70;;;8.30;99.90;;;;;;5108361;28;20043;-66
2022/11/23 08:59:04;;;;;;;15.15;10.07;;;8.30;99.90;;;;;;5091968;28;20488;-66
2022/11/23 09:01:29;;;;;;;16.52;8.48;;;8.30;99.90;;;;;;5108735;28;20039;-66
2022/11/23 09:03:55;;;;;;;16.20;8.77;;;8.30;99.90;;;;;;5109768;28;20067;-66
2022/11/23 09:06:27;;;;;;;16.58;8.75;;;8.40;99.90;;;;;;5110000;28;20368;-65
2022/11/23 09:08:53;;;;;;;22.05;8.90;;;8.40;99.90;;;;;;5107841;28;20044;-66
2022/11/23 09:11:19;;;;;;;17.70;9.18;;;8.40;99.90;;;;;;5107550;28;20051;-66
2022/11/23 09:13:45;;;;;;;15.35;8.13;;;8.40;99.90;;;;;;5109544;28;20062;-66
2022/11/23 09:16:11;;;;;;;13.65;7.95;;;8.40;99.90;;;;;;5108576;28;20122;-66
2022/11/23 09:18:37;;;;;;;15.80;8.10;;;8.50;99.90;;;;;;5110065;28;20131;-66
2022/11/23 09:21:04;;;;;;;16.23;8.05;;;8.40;99.90;;;;;;5109190;28;20062;-65
2022/11/23 09:23:30;;;;;;;14.65;7.10;;;8.50;99.90;;;;;;5109391;28;20043;-66
2022/11/23 09:25:59;;;;;;;14.45;8.00;;;8.50;99.90;;;;;;5109974;28;20084;-65
2022/11/23 09:28:27;;;;;;;14.48;7.25;;;8.50;99.90;;;;;;5108554;28;20337;-66
2022/11/23 09:30:54;;;;;;;17.58;7.13;;;8.50;99.90;;;;;;5108566;28;20055;-65
2022/11/23 09:33:20;;;;;;;14.20;7.25;;;8.50;99.90;;;;;;5091402;28;20092;-66
2022/11/23 09:35:46;;;;;;;13.90;7.05;;;8.60;99.90;;;;;;5109207;28;20052;-66
2022/11/23 09:38:11;;;;;;;12.88;6.82;;;8.60;99.90;;;;;;5107062;28;20118;-66
2022/11/23 09:40:39;;;;;;;16.67;7.43;;;8.60;99.90;;;;;;5089747;28;20040;-66
2022/11/23 09:43:26;;;;;;;12.50;6.72;;;8.60;99.90;;;;;;5102758;28;20039;-66
2022/11/23 09:45:54;;;;;;;12.45;6.38;;;8.60;99.90;;;;;;5108552;28;20039;-65
2022/11/23 09:48:49;;;;;;;13.35;7.18;;;8.60;99.90;;;;;;5090744;28;20071;-66
2022/11/23 09:51:18;;;;;;;13.90;6.18;;;8.60;99.90;;;;;;5108020;28;20110;-65
2022/11/23 09:53:54;;;;;;;12.45;6.95;;;8.60;99.90;;;;;;5109212;28;20118;-66
2022/11/23 09:56:27;;;;;;;12.77;6.30;;;8.60;99.90;;;;;;5096137;28;20036;-67
2022/11/23 09:58:58;;;;;;;10.98;6.15;;;8.70;99.90;;;;;;5089848;28;20091;-66
2022/11/23 10:01:26;;;;;;;14.07;6.85;;;8.70;99.90;;;;;;5107305;28;20142;-66
2022/11/23 10:03:52;;;;;;;12.93;6.75;;;8.70;99.90;;;;;;5109457;28;20175;-66
2022/11/23 10:06:21;;;;;;;13.15;6.25;;;8.70;99.90;;;;;;5108043;28;20117;-66
2022/11/23 10:08:52;;;;;;;15.80;6.93;;;8.80;99.90;;;;;;5107994;28;20077;-66
2022/11/23 10:11:40;;;;;;;16.77;6.57;;;8.80;99.90;;;;;;5084720;28;20047;-66
2022/11/23 10:14:24;;;;;;;12.77;6.75;;;8.80;99.90;;;;;;5107201;28;20039;-66
2022/11/23 10:17:08;;;;;;;9.85;5.28;;;8.70;99.90;;;;;;5109436;28;20036;-66
2022/11/23 10:19:33;;;;;;;15.35;6.38;;;8.70;99.90;;;;;;5108188;28;20504;-66
2022/11/23 10:22:29;;;;;;;15.63;6.45;;;8.70;99.90;;;;;;5108685;28;20054;-66
2022/11/23 10:24:55;;;;;;;14.55;6.25;;;8.70;99.90;;;;;;5112178;28;20043;-66
2022/11/23 10:27:23;;;;;;;17.75;7.20;;;8.70;99.90;;;;;;5109258;28;20111;-66
2022/11/23 10:29:51;;;;;;;16.73;6.97;;;8.70;99.90;;;;;;5111995;28;20043;-66
2022/11/23 10:32:39;;;;;;;14.23;6.05;;;8.70;99.90;;;;;;5112965;28;20183;-66
2022/11/23 10:35:11;;;;;;;13.85;6.40;;;8.70;99.90;;;;;;5110886;28;20043;-66
2022/11/23 10:37:39;;;;;;;20.05;6.43;;;8.70;99.90;;;;;;5094258;28;20043;-67
2022/11/23 10:40:25;;;;;;;15.65;6.07;;;8.70;99.90;;;;;;5093971;28;20047;-66
2022/11/23 10:42:52;;;;;;;;;;;8.70;99.90;;;;;;5111257;28;20499;-66
2022/11/23 10:45:28;;;;;;;11.15;5.53;;;8.70;99.90;;;;;;5111152;28;19983;-66
2022/11/23 10:47:59;;;;;;;17.30;6.05;;;8.70;99.90;;;;;;5112765;28;20042;-66
2022/11/23 10:50:28;;;;;;;18.90;7.13;;;8.70;99.90;;;;;;5109145;28;20066;-66
2022/11/23 10:53:04;;;;;;;15.20;6.72;;;8.80;99.90;;;;;;5110443;28;20139;-66
2022/11/23 10:55:32;;;;;;;17.42;6.18;;;8.80;99.90;;;;;;5110099;27;20316;-66
2022/11/23 10:57:58;;;;;;;13.52;5.80;;;8.80;99.90;;;;;;5108387;28;20032;-66
2022/11/23 11:00:26;;;;;;;19.25;6.10;;;8.90;99.90;;;;;;5107874;28;20035;-66
2022/11/23 11:02:54;;;;;;;16.13;6.10;;;9.00;99.90;;;;;;5091302;28;20448;-66
2022/11/23 11:05:37;;;;;;;25.95;6.70;;;9.00;99.90;;;;;;5091385;28;20039;-66
2022/11/23 11:08:15;;;;;;;13.23;5.03;;;9.10;99.90;;;;;;5109761;28;20042;-66
2022/11/23 11:10:58;;;;;;;11.80;4.65;;;9.10;99.90;;;;;;5104326;28;20126;-66
2022/11/23 11:13:38;;;;;;;14.88;4.97;;;9.20;99.90;;;;;;5113422;28;20050;-64
2022/11/23 11:16:16;;;;;;;14.43;4.65;;;9.20;99.90;;;;;;5099534;28;20040;-64
2022/11/23 11:18:42;;;;;;;15.00;4.88;;;9.30;99.90;;;;;;5114130;28;20046;-64
2022/11/23 11:21:33;;;;;;;11.73;4.32;;;9.30;99.90;;;;;;5112822;28;20126;-64
2022/11/23 11:24:05;;;;;;;15.52;4.65;;;9.40;99.90;;;;;;5112845;28;20567;-65
2022/11/23 11:26:34;;;;;;;15.35;5.97;;;9.40;99.90;;;;;;5113765;28;20043;-64
2022/11/23 11:29:03;;;;;;;13.88;4.57;;;9.50;99.90;;;;;;5113827;28;20101;-66
2022/11/23 11:31:47;;;;;;;17.23;4.78;;;9.50;99.90;;;;;;5113512;28;20047;-65
2022/11/23 11:34:25;;;;;;;11.45;4.13;;;9.50;99.90;;;;;;5113990;28;20035;-65
2022/11/23 11:36:57;;;;;;;11.32;4.22;;;9.50;99.90;;;;;;5096567;28;20058;-65
2022/11/23 11:39:37;;;;;;;10.88;4.22;;;9.50;99.90;;;;;;5112543;28;20058;-65
2022/11/23 11:42:07;;;;;;;14.35;4.07;;;9.40;99.90;;;;;;5096318;28;20046;-65
2022/11/23 11:44:37;;;;;;;13.18;4.28;;;9.40;99.90;;;;;;5112797;28;20566;-65
2022/11/23 11:47:14;;;;;;;14.38;4.43;;;9.40;99.90;;;;;;5096510;28;20502;-65
2022/11/23 11:49:44;;;;;;;15.02;4.68;;;9.50;99.90;;;;;;5113944;28;20058;-65
2022/11/23 11:52:24;;;;;;;12.45;4.07;;;9.60;99.90;;;;;;5113149;28;20122;-65
2022/11/23 11:55:18;;;;;;;9.95;3.85;;;9.60;99.90;;;;;;5096551;28;20050;-65
2022/11/23 11:58:08;;;;;;;9.13;3.42;;;9.70;99.90;;;;;;5114871;28;20122;-66
2022/11/23 12:00:37;;;;;;;7.90;3.70;;;9.70;99.90;;;;;;5112534;28;20047;-65
2022/11/23 12:03:24;;;;;;;10.52;3.60;;;9.70;99.90;;;;;;5113311;28;20051;-65
2022/11/23 12:05:52;;;;;;;9.15;3.25;;;9.80;99.90;;;;;;5113660;28;20032;-66
2022/11/23 12:08:34;;;;;;;17.25;4.18;;;9.80;99.90;;;;;;5112904;28;20035;-66
2022/11/23 12:11:05;;;;;;;13.75;3.78;;;9.80;99.90;;;;;;5113438;28;20039;-66
2022/11/23 12:13:37;;;;;;;20.90;4.30;;;9.80;99.90;;;;;;5111721;28;20530;-67
2022/11/23 12:16:12;;;;;;;9.40;3.22;;;9.80;99.90;;;;;;5114237;28;20074;-67
2022/11/23 12:18:52;;;;;;;13.85;3.40;;;9.80;99.90;;;;;;5114092;28;20032;-67
2022/11/23 12:21:33;;;;;;;10.13;3.50;;;9.70;99.90;;;;;;5111650;28;20055;-67
2022/11/23 12:24:24;;;;;;;12.10;4.50;;;9.70;99.90;;;;;;5114138;28;20118;-67
2022/11/23 12:27:09;;;;;;;12.15;3.47;;;9.80;99.90;;;;;;5109712;28;20036;-67
2022/11/23 12:30:02;;;;;;;14.43;4.30;;;9.90;99.90;;;;;;5111447;28;20082;-67
2022/11/23 12:33:05;;;;;;;14.23;3.90;;;9.90;99.90;;;;;;5112166;27;20492;-67
2022/11/23 12:36:05;;;;;;;8.77;2.85;;;10.00;99.90;;;;;;5109946;28;20055;-69
2022/11/23 12:38:46;;;;;;;9.23;3.55;;;10.10;99.90;;;;;;5112401;28;20043;-67
2022/11/23 12:41:33;;;;;;;16.15;3.20;;;10.00;99.90;;;;;;5112787;28;20395;-67
2022/11/23 12:44:12;;;;;;;8.25;2.88;;;10.00;99.90;;;;;;5112519;28;20073;-67
2022/11/23 12:47:09;;;;;;;10.18;2.88;;;10.00;99.90;;;;;;5094831;28;20043;-67
2022/11/23 12:49:52;;;;;;;10.98;3.78;;;10.10;99.90;;;;;;5111879;28;20165;-67